Hemingford, NE (69348)

8:46 AM MDT on April 30, 2017 (GMT -0600)
Panhandle Coop-Alliance | | Change Station

Elev 4140 ft 42.22 °N, 102.98 °W | Updated 7 minutes ago

Partly Cloudy
Partly Cloudy
36.8 °F
Feels Like 37 °F
N
0.0
Wind Variable Wind from South
Gusts 2.0 mph

Today
High -- | Low -- °F
--% Chance of Precip.
Yesterday
High -- | Low -- °F
Precip. -- in
Pressure 29.99 in
Visibility 10.0 miles
Clouds Clear
Windchill 37 °F
Dew Point 28 °F
Humidity 71%
Rainfall 0.00 in
Snow Depth Not available.
5:48 AM 7:51 PM
Waxing Crescent, 23% visible
METAR KAIA 301353Z AUTO 35014KT 10SM CLR 02/M03 A2996 RMK AO2 SLP153 T00171033
Pressure 29.99 in
Visibility 10.0 miles
Clouds Clear
Windchill 37 °F
Dew Point 28 °F
Humidity 71%
Rainfall 0.00 in
Snow Depth Not available.
5:48 AM 7:51 PM
Waxing Crescent, 23% visible
METAR KAIA 301353Z AUTO 35014KT 10SM CLR 02/M03 A2996 RMK AO2 SLP153 T00171033

Get Severe Weather Alerts

Thanks for signing up!

Be on the lookout for a verification email in your inbox.

You'll start receiving the daily forecast at 8 AM.

×

10-Day Weather Forecast

Almanac

Astronomy

Apr. 30, 2017 Rise Set
Actual Time
Civil Twilight
Nautical Twilight
Astronomical Twilight
Moon
Length of Visible Light
Length of Day
Tomorrow will be .
, % of the Moon is Illuminated

Today's Extremes

State Highs State Lows

Community

WunderPhotos

WunderBlog® & News

Nearby

Air Quality

  Air Quality AQ Index Pollutant
Not available.

Snow Depth

Station Depth Elevation

Earthquake Activity

City Distance Mag. Time & Date
Minimum magnitude displayed is 2.5.

Coastal Water Temperatures

Place Temperature

Stations

Nearby Weather Stations

Station Location Temp. Windchill Dew Point Humidity Wind Precip. Elev Updated Type
                   

Watches & Warnings

There are currently no watches in effect.